createdAt,value
2023-03-27T00:00:38.492Z,937.3115
2023-03-27T00:01:40.105Z,937.3130
2023-03-27T00:02:41.958Z,937.3208
2023-03-27T00:03:43.525Z,937.3170
2023-03-27T00:04:45.062Z,937.3492
2023-03-27T00:05:46.733Z,937.3554
2023-03-27T00:06:48.357Z,937.3254
2023-03-27T00:07:50.016Z,937.3085
2023-03-27T00:08:51.657Z,937.3100
2023-03-27T00:09:53.327Z,937.3331
2023-03-27T00:10:55.178Z,937.3231
2023-03-27T00:11:56.617Z,937.3270
2023-03-27T00:12:58.255Z,937.3270
2023-03-27T00:13:59.926Z,937.3523
2023-03-27T00:15:01.537Z,937.3454
2023-03-27T00:16:03.254Z,937.3439
2023-03-27T00:17:04.883Z,937.3600
2023-03-27T00:18:06.552Z,937.3623
2023-03-27T00:19:08.150Z,937.3923
2023-03-27T00:20:09.833Z,937.4185
2023-03-27T00:21:11.513Z,937.4200
2023-03-27T00:22:13.129Z,937.4008
2023-03-27T00:23:14.767Z,937.4292
2023-03-27T00:24:16.435Z,937.4161
2023-03-27T00:25:18.063Z,937.4254
2023-03-27T00:26:19.758Z,937.4623
2023-03-27T00:27:21.371Z,937.4954
2023-03-27T00:28:23.030Z,937.4631
2023-03-27T00:29:24.672Z,937.4523
2023-03-27T00:30:26.325Z,937.4346
2023-03-27T00:31:28.079Z,937.4431
2023-03-27T00:32:29.653Z,937.4169
2023-03-27T00:33:31.300Z,937.4084
2023-03-27T00:34:32.924Z,937.4292
2023-03-27T00:35:34.672Z,937.4193
2023-03-27T00:36:36.248Z,937.4208
2023-03-27T00:37:37.897Z,937.4285
2023-03-27T00:38:39.740Z,937.4269
2023-03-27T00:39:41.222Z,937.4223
2023-03-27T00:40:42.855Z,937.4161
2023-03-27T00:41:44.531Z,937.4200
2023-03-27T00:42:46.152Z,937.4146
2023-03-27T00:43:47.816Z,937.4046
2023-03-27T00:44:49.442Z,937.4192
2023-03-27T00:45:51.126Z,937.4346
2023-03-27T00:46:52.803Z,937.4477
2023-03-27T00:47:54.428Z,937.4547
2023-03-27T00:48:56.047Z,937.4669
2023-03-27T00:49:57.728Z,937.5108
2023-03-27T00:50:59.356Z,937.4969
2023-03-27T00:52:01.058Z,937.5200
2023-03-27T00:53:02.657Z,937.5453
2023-03-27T00:54:04.329Z,937.5530
2023-03-27T00:55:05.985Z,937.5385
2023-03-27T00:56:07.650Z,937.5438
2023-03-27T00:57:09.333Z,937.5538
2023-03-27T00:58:10.946Z,937.5508
2023-03-27T00:59:12.606Z,937.5453
2023-03-27T01:00:14.282Z,937.5630
2023-03-27T01:01:15.904Z,937.5792
2023-03-27T01:02:17.596Z,937.5800
2023-03-27T01:03:19.275Z,937.5677
2023-03-27T01:04:20.849Z,937.5254
2023-03-27T01:05:22.487Z,937.4631
2023-03-27T01:06:24.149Z,937.4177
2023-03-27T01:07:25.788Z,937.3908
2023-03-27T01:08:27.451Z,937.3870
2023-03-27T01:09:29.084Z,937.3969
2023-03-27T01:10:30.753Z,937.3900
2023-03-27T01:11:32.386Z,937.4215
2023-03-27T01:12:34.069Z,937.4669
2023-03-27T01:13:35.693Z,937.4938
2023-03-27T01:14:37.362Z,937.4900
2023-03-27T01:15:39.013Z,937.5046
2023-03-27T01:16:40.663Z,937.4908
2023-03-27T01:17:42.358Z,937.4716
2023-03-27T01:18:43.946Z,937.4423
2023-03-27T01:19:45.594Z,937.4370
2023-03-27T01:20:47.345Z,937.4231
2023-03-27T01:21:48.904Z,937.4069
2023-03-27T01:22:50.599Z,937.4438
2023-03-27T01:23:59.354Z,937.4108
2023-03-27T01:24:53.889Z,937.4231
2023-03-27T01:25:55.500Z,937.4546
2023-03-27T01:26:57.168Z,937.5015
2023-03-27T01:27:58.832Z,937.5431
2023-03-27T01:29:00.477Z,937.5723
2023-03-27T01:30:02.109Z,937.5977
2023-03-27T01:31:03.798Z,937.5984
2023-03-27T01:32:05.414Z,937.5831
2023-03-27T01:33:07.174Z,937.5831
2023-03-27T01:34:08.718Z,937.6000
2023-03-27T01:35:10.398Z,937.5992
2023-03-27T01:36:12.042Z,937.6038
2023-03-27T01:37:13.706Z,937.6077
2023-03-27T01:38:15.355Z,937.6308
2023-03-27T01:39:17.013Z,937.6223
2023-03-27T01:40:18.639Z,937.6600
2023-03-27T01:41:20.316Z,937.6685
2023-03-27T01:42:21.948Z,937.6754
2023-03-27T01:43:23.647Z,937.6915
2023-03-27T01:44:25.247Z,937.7246
2023-03-27T01:45:26.919Z,937.7454
2023-03-27T01:46:28.587Z,937.7747
2023-03-27T01:47:30.237Z,937.7646
2023-03-27T01:48:31.929Z,937.7953
2023-03-27T01:49:33.531Z,937.7915
2023-03-27T01:50:35.152Z,937.7946
2023-03-27T01:51:36.839Z,937.8062
2023-03-27T01:52:38.488Z,937.8008
2023-03-27T01:53:40.294Z,937.7862
2023-03-27T01:54:41.782Z,937.8307
2023-03-27T01:55:43.441Z,937.8392
2023-03-27T01:56:45.091Z,937.8523
2023-03-27T01:57:48.961Z,937.8785
2023-03-27T01:58:48.405Z,937.8669
2023-03-27T01:59:50.061Z,937.8823
2023-03-27T02:01:04.110Z,937.8854
2023-03-27T02:01:53.357Z,937.8770
2023-03-27T02:02:55.009Z,937.8692
2023-03-27T02:03:56.701Z,937.8700
2023-03-27T02:04:58.322Z,937.8823
2023-03-27T02:05:59.962Z,937.9000
2023-03-27T02:07:01.597Z,937.9277
2023-03-27T02:08:03.282Z,937.9315
2023-03-27T02:09:04.911Z,937.9608
2023-03-27T02:10:06.581Z,937.9808
2023-03-27T02:11:08.284Z,938.0277
2023-03-27T02:12:09.946Z,938.0600
2023-03-27T02:13:11.584Z,938.0908
2023-03-27T02:14:13.278Z,938.1154
2023-03-27T02:15:23.659Z,938.1523
2023-03-27T02:16:16.641Z,938.1616
2023-03-27T02:17:18.201Z,938.1769
2023-03-27T02:18:19.881Z,938.1900
2023-03-27T02:19:21.537Z,938.2031
2023-03-27T02:20:23.186Z,938.2054
2023-03-27T02:21:24.846Z,938.2161
2023-03-27T02:22:38.137Z,938.2523
2023-03-27T02:23:28.132Z,938.2646
2023-03-27T02:24:29.867Z,938.2723
2023-03-27T02:25:31.457Z,938.2969
2023-03-27T02:26:33.125Z,938.3015
2023-03-27T02:27:34.743Z,938.2708
2023-03-27T02:28:36.415Z,938.2731
2023-03-27T02:29:38.080Z,938.2762
2023-03-27T02:30:39.735Z,938.2892
2023-03-27T02:31:41.430Z,938.2954
2023-03-27T02:32:43.163Z,938.3008
2023-03-27T02:33:44.681Z,938.2831
2023-03-27T02:34:46.338Z,938.3062
2023-03-27T02:35:48.022Z,938.3092
2023-03-27T02:36:49.646Z,938.3477
2023-03-27T02:37:51.314Z,938.3646
2023-03-27T02:38:52.950Z,938.3654
2023-03-27T02:39:54.638Z,938.3792
2023-03-27T02:40:56.396Z,938.4046
2023-03-27T02:41:57.911Z,938.4385
2023-03-27T02:42:59.577Z,938.4477
2023-03-27T02:44:01.233Z,938.4669
2023-03-27T02:45:02.891Z,938.4992
2023-03-27T02:46:04.625Z,938.5054
2023-03-27T02:47:06.181Z,938.5354
2023-03-27T02:48:07.900Z,938.5477
2023-03-27T02:49:09.484Z,938.5477
2023-03-27T02:50:11.227Z,938.5739
2023-03-27T02:51:12.803Z,938.5623
2023-03-27T02:52:14.464Z,938.5746
2023-03-27T02:53:16.104Z,938.5785
2023-03-27T02:54:17.766Z,938.6015
2023-03-27T02:55:19.426Z,938.5977
2023-03-27T02:56:21.097Z,938.5992
2023-03-27T02:57:24.967Z,938.6031
2023-03-27T02:58:24.391Z,938.6200
2023-03-27T02:59:26.016Z,938.6431
2023-03-27T03:00:27.712Z,938.6785
2023-03-27T03:01:29.365Z,938.6885
2023-03-27T03:02:31.065Z,938.7008
2023-03-27T03:03:32.646Z,938.6992
2023-03-27T03:04:34.307Z,938.7315
2023-03-27T03:05:35.961Z,938.7531
2023-03-27T03:06:37.608Z,938.7800
2023-03-27T03:07:39.248Z,938.8008
2023-03-27T03:08:40.919Z,938.8130
2023-03-27T03:09:42.555Z,938.8362
2023-03-27T03:10:44.241Z,938.8523
2023-03-27T03:11:45.849Z,938.8946
2023-03-27T03:12:47.515Z,938.9177
2023-03-27T03:13:49.147Z,938.9454
2023-03-27T03:14:50.831Z,938.9454
2023-03-27T03:15:52.507Z,938.9815
2023-03-27T03:16:54.177Z,939.0215
2023-03-27T03:17:55.780Z,939.0562
2023-03-27T03:18:57.451Z,939.0592
2023-03-27T03:19:59.069Z,939.0623
2023-03-27T03:21:00.782Z,939.1069
2023-03-27T03:22:02.386Z,939.1292
2023-03-27T03:23:04.056Z,939.1561
2023-03-27T03:24:05.696Z,939.1715
2023-03-27T03:25:07.370Z,939.1892
2023-03-27T03:26:09.022Z,939.2131
2023-03-27T03:27:10.693Z,939.2223
2023-03-27T03:28:12.303Z,939.2415
2023-03-27T03:29:13.972Z,939.2531
2023-03-27T03:30:16.985Z,939.2746
2023-03-27T03:31:17.362Z,939.2923
2023-03-27T03:32:18.916Z,939.2916
2023-03-27T03:33:20.582Z,939.3130
2023-03-27T03:34:22.203Z,939.3270
2023-03-27T03:35:23.898Z,939.3623
2023-03-27T03:36:25.526Z,939.3654
2023-03-27T03:37:27.178Z,939.3846
2023-03-27T03:38:28.815Z,939.3931
2023-03-27T03:39:30.490Z,939.3992
2023-03-27T03:40:32.112Z,939.4269
2023-03-27T03:41:33.804Z,939.4370
2023-03-27T03:42:35.422Z,939.4431
2023-03-27T03:43:37.086Z,939.4515
2023-03-27T03:44:38.741Z,939.4808
2023-03-27T03:45:40.395Z,939.4861
2023-03-27T03:46:42.041Z,939.5031
2023-03-27T03:47:43.725Z,939.5262
2023-03-27T03:48:45.317Z,939.5377
2023-03-27T03:49:46.993Z,939.5600
2023-03-27T03:50:48.623Z,939.5731
2023-03-27T03:52:03.775Z,939.5754
2023-03-27T03:52:51.921Z,939.5916
2023-03-27T03:53:53.586Z,939.6169
2023-03-27T03:54:55.239Z,939.6300
2023-03-27T03:55:56.883Z,939.6408
2023-03-27T03:56:58.557Z,939.6623
2023-03-27T03:58:00.192Z,939.6885
2023-03-27T03:59:01.846Z,939.7154
2023-03-27T04:00:03.504Z,939.7323
2023-03-27T04:01:05.126Z,939.7446
2023-03-27T04:02:06.837Z,939.7354
2023-03-27T04:03:08.640Z,939.7285
2023-03-27T04:04:10.104Z,939.7500
2023-03-27T04:05:11.745Z,939.7846
2023-03-27T04:06:13.419Z,939.7953
2023-03-27T04:07:15.060Z,939.8115
2023-03-27T04:08:16.715Z,939.8215
2023-03-27T04:09:18.341Z,939.8723
2023-03-27T04:10:20.048Z,939.8815
2023-03-27T04:11:21.660Z,939.9092
2023-03-27T04:12:23.353Z,939.9315
2023-03-27T04:13:24.987Z,939.9592
2023-03-27T04:14:26.622Z,939.9800
2023-03-27T04:15:28.266Z,939.9938
2023-03-27T04:16:29.994Z,939.9992
2023-03-27T04:17:31.622Z,940.0277
2023-03-27T04:18:33.367Z,940.0385
2023-03-27T04:19:34.888Z,940.0346
2023-03-27T04:20:36.537Z,940.0469
2023-03-27T04:21:38.158Z,940.0292
2023-03-27T04:22:39.847Z,940.0646
2023-03-27T04:23:41.463Z,940.0800
2023-03-27T04:24:43.140Z,940.0854
2023-03-27T04:25:44.810Z,940.1077
2023-03-27T04:26:46.441Z,940.1300
2023-03-27T04:27:48.088Z,940.1392
2023-03-27T04:28:49.730Z,940.1761
2023-03-27T04:29:51.369Z,940.2008
2023-03-27T04:30:53.038Z,940.2208
2023-03-27T04:31:54.681Z,940.2415
2023-03-27T04:32:56.389Z,940.2900
2023-03-27T04:33:57.977Z,940.3008
2023-03-27T04:34:59.651Z,940.3130
2023-03-27T04:36:06.360Z,940.3669
2023-03-27T04:37:02.958Z,940.3885
2023-03-27T04:38:04.616Z,940.4154
2023-03-27T04:39:06.260Z,940.4161
2023-03-27T04:40:07.892Z,940.4177
2023-03-27T04:41:09.545Z,940.4100
2023-03-27T04:42:11.178Z,940.4531
2023-03-27T04:43:12.887Z,940.4731
2023-03-27T04:44:14.493Z,940.4854
2023-03-27T04:45:16.190Z,940.5054
2023-03-27T04:46:17.825Z,940.5562
2023-03-27T04:47:19.476Z,940.5777
2023-03-27T04:48:21.140Z,940.5939
2023-03-27T04:49:22.780Z,940.5931
2023-03-27T04:50:24.403Z,940.5916
2023-03-27T04:51:26.089Z,940.5877
2023-03-27T04:52:27.725Z,940.6200
2023-03-27T04:53:29.556Z,940.6400
2023-03-27T04:54:31.055Z,940.6631
2023-03-27T04:55:32.680Z,940.6885
2023-03-27T04:56:34.363Z,940.7277
2023-03-27T04:57:35.987Z,940.7393
2023-03-27T04:58:37.945Z,940.7816
2023-03-27T04:59:39.301Z,940.8138
2023-03-27T05:00:40.987Z,940.8623
2023-03-27T05:01:42.606Z,940.8939
2023-03-27T05:02:44.270Z,940.8946
2023-03-27T05:03:45.976Z,940.9354
2023-03-27T05:04:47.551Z,940.9623
2023-03-27T05:05:49.190Z,941.0015
2023-03-27T05:06:50.872Z,941.0223
2023-03-27T05:07:52.580Z,941.0431
2023-03-27T05:08:54.177Z,941.0685
2023-03-27T05:09:55.777Z,941.0792
2023-03-27T05:10:57.712Z,941.0877
2023-03-27T05:11:59.098Z,941.1131
2023-03-27T05:13:00.769Z,941.1400
2023-03-27T05:14:02.426Z,941.1715
2023-03-27T05:15:04.089Z,941.1569
2023-03-27T05:16:05.720Z,941.1969
2023-03-27T05:17:07.374Z,941.2338
2023-03-27T05:18:09.322Z,941.2546
2023-03-27T05:19:10.767Z,941.2762
2023-03-27T05:20:12.319Z,941.2708
2023-03-27T05:21:13.974Z,941.2916
2023-03-27T05:22:15.626Z,941.2823
2023-03-27T05:23:17.288Z,941.3154
2023-03-27T05:24:18.931Z,941.3300
2023-03-27T05:25:20.586Z,941.3515
2023-03-27T05:26:22.215Z,941.3508
2023-03-27T05:27:23.923Z,941.3723
2023-03-27T05:28:25.525Z,941.3785
2023-03-27T05:29:27.232Z,941.4008
2023-03-27T05:30:28.927Z,941.4223
2023-03-27T05:31:30.573Z,941.4354
2023-03-27T05:32:32.170Z,941.4362
2023-03-27T05:33:33.785Z,941.4592
2023-03-27T05:34:35.496Z,941.4969
2023-03-27T05:35:37.125Z,941.5215
2023-03-27T05:36:38.773Z,941.5284
2023-03-27T05:37:40.405Z,941.5554
2023-03-27T05:38:42.064Z,941.5654
2023-03-27T05:39:43.732Z,941.5600
2023-03-27T05:40:45.374Z,941.5715
2023-03-27T05:41:47.005Z,941.6038
2023-03-27T05:42:48.674Z,941.6277
2023-03-27T05:43:51.241Z,941.6723
2023-03-27T05:44:51.996Z,941.7208
2023-03-27T05:45:53.626Z,941.7485
2023-03-27T05:46:55.291Z,941.7692
2023-03-27T05:47:56.991Z,941.7885
2023-03-27T05:48:58.592Z,941.8315
2023-03-27T05:50:00.249Z,941.8900
2023-03-27T05:51:01.903Z,941.9254
2023-03-27T05:52:03.510Z,941.9315
2023-03-27T05:53:05.200Z,941.9547
2023-03-27T05:54:06.809Z,941.9554
2023-03-27T05:55:08.523Z,941.9838
2023-03-27T05:56:10.116Z,942.0046
2023-03-27T05:57:11.914Z,942.0346
2023-03-27T05:58:13.462Z,942.0630
2023-03-27T05:59:15.077Z,942.0777
2023-03-27T06:00:16.762Z,942.1085
2023-03-27T06:01:18.388Z,942.1308
2023-03-27T06:02:21.517Z,942.1516
2023-03-27T06:03:21.876Z,942.1685
2023-03-27T06:04:23.358Z,942.1723
2023-03-27T06:05:25.023Z,942.2084
2023-03-27T06:06:26.637Z,942.2338
2023-03-27T06:07:28.305Z,942.2623
2023-03-27T06:08:29.933Z,942.2916
2023-03-27T06:09:31.583Z,942.3130
2023-03-27T06:10:33.250Z,942.3461
2023-03-27T06:11:34.889Z,942.3669
2023-03-27T06:12:36.526Z,942.3700
2023-03-27T06:13:38.260Z,942.3862
2023-03-27T06:14:39.906Z,942.4054
2023-03-27T06:15:41.635Z,942.4431
2023-03-27T06:16:43.201Z,942.4761
2023-03-27T06:17:44.894Z,942.5077
2023-03-27T06:18:46.498Z,942.5453
2023-03-27T06:19:48.184Z,942.5692
2023-03-27T06:20:49.815Z,942.5839
2023-03-27T06:21:51.460Z,942.5908
2023-03-27T06:22:53.104Z,942.6130
2023-03-27T06:23:54.763Z,942.6377
2023-03-27T06:24:56.389Z,942.6561
2023-03-27T06:25:58.378Z,942.6892
2023-03-27T06:26:59.691Z,942.7146
2023-03-27T06:28:01.364Z,942.7462
2023-03-27T06:29:08.142Z,942.7747
2023-03-27T06:30:04.676Z,942.8162
2023-03-27T06:31:06.355Z,942.8215
2023-03-27T06:32:07.981Z,942.8561
2023-03-27T06:33:09.621Z,942.8792
2023-03-27T06:34:11.284Z,942.8962
2023-03-27T06:35:12.896Z,942.9138
2023-03-27T06:36:14.625Z,942.9308
2023-03-27T06:37:16.181Z,942.9408
2023-03-27T06:38:17.862Z,942.9654
2023-03-27T06:39:19.479Z,942.9800
2023-03-27T06:40:21.139Z,943.0223
2023-03-27T06:41:22.802Z,943.0354
2023-03-27T06:42:24.445Z,943.0623
2023-03-27T06:43:26.075Z,943.0754
2023-03-27T06:44:27.738Z,943.0931
2023-03-27T06:45:29.393Z,943.1077
2023-03-27T06:46:42.688Z,943.1123
2023-03-27T06:47:36.382Z,943.1308
2023-03-27T06:48:34.366Z,943.1270
2023-03-27T06:49:35.975Z,943.1370
2023-03-27T06:50:37.629Z,943.1769
2023-03-27T06:51:39.281Z,943.2023
2023-03-27T06:52:40.928Z,943.2454
2023-03-27T06:53:42.558Z,943.2754
2023-03-27T06:54:44.216Z,943.3246
2023-03-27T06:55:45.868Z,943.3593
2023-03-27T06:56:47.610Z,943.3900
2023-03-27T06:57:49.166Z,943.4061
2023-03-27T06:58:50.836Z,943.4315
2023-03-27T06:59:52.488Z,943.4692
2023-03-27T07:00:54.129Z,943.4992
2023-03-27T07:01:55.830Z,943.5515
2023-03-27T07:02:57.420Z,943.5846
2023-03-27T07:03:59.065Z,943.6300
2023-03-27T07:05:04.649Z,943.6516
2023-03-27T07:06:02.556Z,943.6738
2023-03-27T07:07:04.049Z,943.6923
2023-03-27T07:08:18.997Z,943.7200
2023-03-27T07:09:07.318Z,943.7562
2023-03-27T07:10:08.962Z,943.7808
2023-03-27T07:11:12.266Z,943.7908
2023-03-27T07:12:12.278Z,943.8300
2023-03-27T07:13:13.919Z,943.8785
2023-03-27T07:14:15.589Z,943.8885
2023-03-27T07:15:17.295Z,943.9231
2023-03-27T07:16:18.892Z,943.9600
2023-03-27T07:17:20.532Z,944.0154
2023-03-27T07:18:22.216Z,944.0623
2023-03-27T07:19:23.822Z,944.0739
2023-03-27T07:20:25.473Z,944.1046
2023-03-27T07:21:27.137Z,944.1315
2023-03-27T07:22:28.799Z,944.1523
2023-03-27T07:23:30.435Z,944.1938
2023-03-27T07:24:32.060Z,944.2077
2023-03-27T07:25:33.744Z,944.2462
2023-03-27T07:26:35.354Z,944.2762
2023-03-27T07:27:37.063Z,944.2846
2023-03-27T07:28:38.729Z,944.3254
2023-03-27T07:29:40.337Z,944.3561
2023-03-27T07:30:41.983Z,944.3977
2023-03-27T07:31:57.525Z,944.4400
2023-03-27T07:32:45.408Z,944.4792
2023-03-27T07:33:47.068Z,944.5085
2023-03-27T07:34:48.579Z,944.5246
2023-03-27T07:35:50.256Z,944.5354
2023-03-27T07:36:51.894Z,944.5723
2023-03-27T07:37:53.579Z,944.5739
2023-03-27T07:38:55.184Z,944.5939
2023-03-27T07:39:56.847Z,944.6292
2023-03-27T07:40:58.504Z,944.6469
2023-03-27T07:42:00.164Z,944.6677
2023-03-27T07:43:01.834Z,944.7092
2023-03-27T07:44:03.464Z,944.7430
2023-03-27T07:45:05.090Z,944.7715
2023-03-27T07:46:06.803Z,944.8015
2023-03-27T07:47:08.397Z,944.8254
2023-03-27T07:48:10.087Z,944.8162
2023-03-27T07:49:11.685Z,944.8246
2023-03-27T07:50:13.380Z,944.8523
2023-03-27T07:51:14.982Z,944.8538
2023-03-27T07:52:16.738Z,944.8808
2023-03-27T07:53:32.806Z,944.9223
2023-03-27T07:54:19.945Z,944.9346
2023-03-27T07:55:21.582Z,944.9515
2023-03-27T07:56:23.276Z,944.9946
2023-03-27T07:57:25.041Z,945.0023
2023-03-27T07:58:26.857Z,945.0139
2023-03-27T07:59:28.197Z,945.0323
2023-03-27T08:00:29.980Z,945.0369
2023-03-27T08:01:31.480Z,945.0792
2023-03-27T08:02:33.188Z,945.0815
2023-03-27T08:03:34.922Z,945.0992
2023-03-27T08:04:36.584Z,945.1177
2023-03-27T08:05:38.080Z,945.1407
2023-03-27T08:06:39.751Z,945.1769
2023-03-27T08:07:41.389Z,945.1923
2023-03-27T08:08:43.092Z,945.2100
2023-03-27T08:09:44.697Z,945.2285
2023-03-27T08:10:46.361Z,945.2662
2023-03-27T08:11:48.010Z,945.2892
2023-03-27T08:12:49.668Z,945.3000
2023-03-27T08:13:51.330Z,945.3223
2023-03-27T08:14:52.968Z,945.3615
2023-03-27T08:15:54.750Z,945.3730
2023-03-27T08:17:08.648Z,945.3854
2023-03-27T08:17:57.937Z,945.3954
2023-03-27T08:18:59.640Z,945.4223
2023-03-27T08:20:01.226Z,945.4562
2023-03-27T08:21:02.957Z,945.4785
2023-03-27T08:22:04.501Z,945.4938
2023-03-27T08:23:06.191Z,945.5115
2023-03-27T08:24:07.833Z,945.5085
2023-03-27T08:25:09.502Z,945.5146
2023-03-27T08:26:11.101Z,945.5262
2023-03-27T08:27:12.798Z,945.5284
2023-03-27T08:28:14.433Z,945.5223
2023-03-27T08:29:16.138Z,945.5361
2023-03-27T08:30:17.794Z,945.5685
2023-03-27T08:31:19.487Z,945.6023
2023-03-27T08:32:21.035Z,945.6246
2023-03-27T08:33:22.739Z,945.6370
2023-03-27T08:34:24.397Z,945.6554
2023-03-27T08:35:26.026Z,945.6761
2023-03-27T08:36:27.632Z,945.6915
2023-03-27T08:37:29.265Z,945.7231
2023-03-27T08:38:30.964Z,945.7300
2023-03-27T08:39:32.630Z,945.7146
2023-03-27T08:40:34.219Z,945.7216
2023-03-27T08:41:35.882Z,945.7300
2023-03-27T08:42:37.556Z,945.7469
2023-03-27T08:43:39.142Z,945.7700
2023-03-27T08:44:40.873Z,945.8031
2023-03-27T08:45:42.470Z,945.8200
2023-03-27T08:46:44.136Z,945.8484
2023-03-27T08:48:48.556Z,945.8569
2023-03-27T08:48:48.556Z,945.8716
2023-03-27T08:49:50.144Z,945.8738
2023-03-27T08:50:51.817Z,945.8947
2023-03-27T08:51:53.406Z,945.9008
2023-03-27T08:52:55.059Z,945.9285
2023-03-27T08:53:56.719Z,945.9523
2023-03-27T08:54:58.502Z,945.9854
2023-03-27T08:56:00.003Z,945.9946
2023-03-27T08:57:01.759Z,946.0131
2023-03-27T08:58:03.334Z,946.0223
2023-03-27T08:59:04.992Z,946.0400
2023-03-27T09:00:06.650Z,946.0677
2023-03-27T09:01:08.301Z,946.0900
2023-03-27T09:02:09.989Z,946.0977
2023-03-27T09:03:11.721Z,946.1161
2023-03-27T09:04:13.218Z,946.1238
2023-03-27T09:05:14.931Z,946.1423
2023-03-27T09:06:16.567Z,946.1600
2023-03-27T09:07:18.188Z,946.1877
2023-03-27T09:08:19.804Z,946.2092
2023-03-27T09:09:21.461Z,946.2231
2023-03-27T09:10:23.199Z,946.2361
2023-03-27T09:11:24.804Z,946.2338
2023-03-27T09:12:26.430Z,946.2385
2023-03-27T09:13:28.027Z,946.2554
2023-03-27T09:14:29.686Z,946.2723
2023-03-27T09:15:31.384Z,946.2953
2023-03-27T09:16:33.122Z,946.3200
2023-03-27T09:17:34.683Z,946.3331
2023-03-27T09:18:36.316Z,946.3377
2023-03-27T09:19:37.947Z,946.3200
2023-03-27T09:20:39.662Z,946.3062
2023-03-27T09:21:41.229Z,946.2977
2023-03-27T09:22:42.904Z,946.3108
2023-03-27T09:23:44.523Z,946.3254
2023-03-27T09:24:46.236Z,946.3523
2023-03-27T09:25:47.926Z,946.3715
2023-03-27T09:27:01.072Z,946.4092
2023-03-27T09:27:51.132Z,946.4375
2023-03-27T09:28:52.806Z,946.4547
2023-03-27T09:30:05.960Z,946.4700
2023-03-27T09:30:56.226Z,946.4783
2023-03-27T09:31:57.744Z,946.4885
2023-03-27T09:32:59.448Z,946.4992
2023-03-27T09:34:01.001Z,946.5177
2023-03-27T09:35:02.752Z,946.5200
2023-03-27T09:36:04.460Z,946.5300
2023-03-27T09:37:06.056Z,946.5446
2023-03-27T09:38:07.640Z,946.5331
2023-03-27T09:39:09.314Z,946.5400
2023-03-27T09:40:10.954Z,946.5446
2023-03-27T09:41:12.634Z,946.5585
2023-03-27T09:42:14.238Z,946.5762
2023-03-27T09:43:15.920Z,946.5839
2023-03-27T09:44:17.596Z,946.5877
2023-03-27T09:45:19.301Z,946.5961
2023-03-27T09:46:20.933Z,946.6053
2023-03-27T09:47:22.520Z,946.6192
2023-03-27T09:48:24.185Z,946.6516
2023-03-27T09:49:25.814Z,946.6700
2023-03-27T09:50:27.945Z,946.6877
2023-03-27T09:51:29.269Z,946.6954
2023-03-27T09:52:30.711Z,946.6992
2023-03-27T09:53:32.434Z,946.7161
2023-03-27T09:54:34.058Z,946.7330
2023-03-27T09:55:35.717Z,946.7385
2023-03-27T09:56:37.392Z,946.7500
2023-03-27T09:57:39.077Z,946.7577
2023-03-27T09:58:40.678Z,946.7639
2023-03-27T09:59:42.307Z,946.7885
2023-03-27T10:00:44.031Z,946.8038
2023-03-27T10:01:45.632Z,946.8239
2023-03-27T10:02:47.297Z,946.8254
2023-03-27T10:03:49.108Z,946.8461
2023-03-27T10:04:50.548Z,946.8492
2023-03-27T10:05:52.216Z,946.8538
2023-03-27T10:06:53.852Z,946.8746
2023-03-27T10:07:55.522Z,946.8785
2023-03-27T10:08:57.165Z,946.8808
2023-03-27T10:09:58.836Z,946.8877
2023-03-27T10:11:00.485Z,946.8915
2023-03-27T10:12:02.190Z,946.9046
2023-03-27T10:13:03.767Z,946.9146
2023-03-27T10:14:05.454Z,946.9023
2023-03-27T10:15:07.112Z,946.8915
2023-03-27T10:16:08.837Z,946.9077
2023-03-27T10:17:10.450Z,946.9238
2023-03-27T10:18:12.199Z,946.9623
2023-03-27T10:19:13.855Z,947.0115
2023-03-27T10:20:15.491Z,947.0700
2023-03-27T10:21:17.100Z,947.1185
2023-03-27T10:22:18.766Z,947.1300
2023-03-27T10:23:20.359Z,947.1500
2023-03-27T10:24:22.005Z,947.1615
2023-03-27T10:25:23.678Z,947.1846
2023-03-27T10:26:25.343Z,947.1970
2023-03-27T10:27:26.976Z,947.2261
2023-03-27T10:28:28.609Z,947.2454
2023-03-27T10:29:30.262Z,947.2585
2023-03-27T10:30:31.912Z,947.2662
2023-03-27T10:31:33.588Z,947.2600
2023-03-27T10:32:35.268Z,947.2623
2023-03-27T10:33:36.885Z,947.2608
2023-03-27T10:34:38.517Z,947.2562
2023-03-27T10:35:40.179Z,947.2677
2023-03-27T10:36:41.842Z,947.2715
2023-03-27T10:37:49.773Z,947.2770
2023-03-27T10:38:45.132Z,947.2817
2023-03-27T10:39:46.756Z,947.2839
2023-03-27T10:40:48.426Z,947.2908
2023-03-27T10:41:50.067Z,947.3015
2023-03-27T10:42:51.782Z,947.3200
2023-03-27T10:43:53.360Z,947.3347
2023-03-27T10:44:55.030Z,947.3454
2023-03-27T10:45:56.764Z,947.3630
2023-03-27T10:46:58.347Z,947.3738
2023-03-27T10:48:00.038Z,947.3862
2023-03-27T10:49:01.635Z,947.3862
2023-03-27T10:50:03.267Z,947.4084
2023-03-27T10:51:04.945Z,947.4346
2023-03-27T10:52:06.560Z,947.4223
2023-03-27T10:53:08.336Z,947.4277
2023-03-27T10:54:09.902Z,947.4330
2023-03-27T10:55:11.537Z,947.4269
2023-03-27T10:56:13.176Z,947.4400
2023-03-27T10:57:14.868Z,947.4777
2023-03-27T10:58:16.481Z,947.5000
2023-03-27T10:59:21.509Z,947.4800
2023-03-27T11:00:19.763Z,947.5150
2023-03-27T11:01:21.505Z,947.5354
2023-03-27T11:02:23.115Z,947.5515
2023-03-27T11:03:24.807Z,947.5546
2023-03-27T11:04:26.378Z,947.5677
2023-03-27T11:05:28.092Z,947.5831
2023-03-27T11:06:29.698Z,947.5977
2023-03-27T11:07:31.369Z,947.6092
2023-03-27T11:08:33.062Z,947.6130
2023-03-27T11:09:34.708Z,947.6192
2023-03-27T11:10:36.320Z,947.6323
2023-03-27T11:11:38.031Z,947.6362
2023-03-27T11:12:39.608Z,947.6246
2023-03-27T11:13:41.279Z,947.6192
2023-03-27T11:14:42.917Z,947.6300
2023-03-27T11:15:44.608Z,947.6346
2023-03-27T11:16:46.242Z,947.6177
2023-03-27T11:17:47.905Z,947.6270
2023-03-27T11:18:49.573Z,947.6407
2023-03-27T11:19:51.176Z,947.6631
2023-03-27T11:20:52.789Z,947.6885
2023-03-27T11:21:54.485Z,947.7085
2023-03-27T11:22:56.138Z,947.7238
2023-03-27T11:23:57.926Z,947.7538
2023-03-27T11:24:59.429Z,947.7816
2023-03-27T11:26:01.075Z,947.7992
2023-03-27T11:27:02.754Z,947.8162
2023-03-27T11:28:04.444Z,947.8300
2023-03-27T11:29:06.059Z,947.8408
2023-03-27T11:30:07.705Z,947.8285
2023-03-27T11:31:12.112Z,947.8377
2023-03-27T11:32:10.995Z,947.8454
2023-03-27T11:33:12.608Z,947.8385
2023-03-27T11:34:14.345Z,947.8392
2023-03-27T11:35:15.923Z,947.8675
2023-03-27T11:36:17.619Z,947.8715
2023-03-27T11:37:19.217Z,947.8877
2023-03-27T11:38:20.911Z,947.9046
2023-03-27T11:39:22.626Z,947.9169
2023-03-27T11:40:24.232Z,947.9177
2023-03-27T11:41:25.847Z,947.9215
2023-03-27T11:42:27.604Z,947.9408
2023-03-27T11:43:29.135Z,947.9423
2023-03-27T11:44:30.847Z,947.9646
2023-03-27T11:45:32.452Z,947.9753
2023-03-27T11:46:34.168Z,947.9861
2023-03-27T11:47:35.759Z,948.0092
2023-03-27T11:48:37.394Z,948.0115
2023-03-27T11:49:39.141Z,948.0162
2023-03-27T11:50:40.750Z,948.0131
2023-03-27T11:51:42.403Z,948.0215
2023-03-27T11:52:43.997Z,948.0485
2023-03-27T11:53:45.684Z,948.0577
2023-03-27T11:54:47.379Z,948.0700
2023-03-27T11:55:49.008Z,948.0754
2023-03-27T11:56:50.643Z,948.0831
2023-03-27T11:57:52.278Z,948.0923
2023-03-27T11:58:53.917Z,948.1161
2023-03-27T11:59:55.616Z,948.1262
2023-03-27T12:00:57.393Z,948.1577
2023-03-27T12:01:58.936Z,948.1730
2023-03-27T12:03:00.574Z,948.1846
2023-03-27T12:04:02.320Z,948.1669